Time;durP1;ratioP1;P1;durP2;ratioP2;P2;SDS_P1;SDS_P2;PMS_P1;PMS_P2;Temp;Humidity;BMP_temperature;BMP_pressure;BME280_temperature;BME280_humidity;BME280_pressure;Samples;Min_cycle;Max_cycle;Signal;HPM_P1;HPM_P2
2022/05/23 00:01:06;;;;;;;126.78;116.20;;;16.00;76.10;;;;;;5016061;28;20505;-72
2022/05/23 00:03:35;;;;;;;145.27;133.52;;;16.00;76.30;;;;;;5035661;28;20054;-72
2022/05/23 00:06:03;;;;;;;135.02;123.93;;;16.00;76.50;;;;;;5035182;28;20054;-72
2022/05/23 00:08:30;;;;;;;133.60;122.45;;;16.00;76.60;;;;;;5017072;28;20112;-72
2022/05/23 00:10:57;;;;;;;128.00;116.97;;;16.00;76.50;;;;;;5017760;28;20325;-72
2022/05/23 00:13:24;;;;;;;127.63;116.93;;;16.00;76.50;;;;;;5017364;28;20058;-72
2022/05/23 00:15:52;;;;;;;126.70;116.10;;;15.90;76.50;;;;;;5035609;28;20133;-72
2022/05/23 00:18:19;;;;;;;127.53;116.68;;;16.00;76.90;;;;;;5017755;28;20116;-72
2022/05/23 00:20:46;;;;;;;126.20;115.47;;;15.90;77.10;;;;;;5033913;28;20112;-72
2022/05/23 00:23:12;;;;;;;127.43;116.47;;;15.80;77.20;;;;;;5017410;28;20132;-72
2022/05/23 00:25:39;;;;;;;127.32;116.72;;;15.80;77.40;;;;;;5034001;28;20049;-72
2022/05/23 00:28:07;;;;;;;126.93;116.18;;;15.80;77.30;;;;;;5033610;28;20108;-72
2022/05/23 00:30:33;;;;;;;127.05;116.35;;;15.80;77.30;;;;;;5017281;28;20141;-71
2022/05/23 00:35:52;;;;;;;126.47;115.72;;;15.90;77.10;;;;;;4981418;28;20043;-72
2022/05/23 00:38:18;;;;;;;126.57;115.85;;;15.80;77.10;;;;;;5014968;28;20054;-72
2022/05/23 00:40:51;;;;;;;126.28;115.43;;;15.90;77.20;;;;;;4981635;28;20141;-72
2022/05/23 00:43:25;;;;;;;126.63;115.93;;;15.80;77.00;;;;;;5015177;28;20050;-72
2022/05/23 00:45:54;;;;;;;126.80;116.20;;;15.80;77.00;;;;;;5013722;28;20050;-72
2022/05/23 00:48:25;;;;;;;126.78;116.07;;;15.80;77.10;;;;;;5013269;28;20042;-72
2022/05/23 00:50:55;;;;;;;127.72;116.82;;;15.70;77.20;;;;;;4981108;28;20078;-72
2022/05/23 00:53:29;;;;;;;126.95;116.38;;;15.70;77.30;;;;;;4997205;28;20065;-72
2022/05/23 00:55:57;;;;;;;128.35;117.45;;;15.60;77.40;;;;;;5013839;28;20042;-71
2022/05/23 00:58:29;;;;;;;128.63;117.60;;;15.60;77.70;;;;;;4980532;28;20182;-71
2022/05/23 01:01:02;;;;;;;126.25;115.47;;;15.60;77.90;;;;;;5013629;28;20515;-72
2022/05/23 01:03:31;;;;;;;126.07;115.18;;;15.50;78.10;;;;;;4997407;28;20050;-72
2022/05/23 01:05:58;;;;;;;126.82;115.72;;;15.50;78.40;;;;;;5013257;28;20086;-72
2022/05/23 01:08:26;;;;;;;126.50;115.47;;;15.50;78.50;;;;;;5014499;28;20054;-71
2022/05/23 01:10:54;;;;;;;125.45;114.65;;;15.50;78.50;;;;;;5033519;28;20068;-71
2022/05/23 01:13:21;;;;;;;126.45;115.65;;;15.50;78.80;;;;;;5033072;28;20507;-71
2022/05/23 01:15:50;;;;;;;125.38;114.47;;;15.50;78.60;;;;;;5016718;28;20133;-71
2022/05/23 01:18:18;;;;;;;128.05;116.88;;;15.50;78.60;;;;;;5000385;28;20052;-71
2022/05/23 01:20:52;;;;;;;125.82;115.13;;;15.60;78.60;;;;;;5033390;28;20058;-72
2022/05/23 01:23:29;;;;;;;127.80;116.82;;;15.50;78.40;;;;;;5016554;28;20468;-72
2022/05/23 01:26:20;;;;;;;127.05;115.75;;;15.50;78.40;;;;;;5033915;28;20109;-72
2022/05/23 01:28:53;;;;;;;127.47;116.55;;;15.50;78.30;;;;;;5016112;28;20428;-71
2022/05/23 01:31:46;;;;;;;124.25;113.43;;;15.50;78.40;;;;;;5013970;28;20476;-72
2022/05/23 01:34:24;;;;;;;123.97;113.38;;;15.50;78.50;;;;;;5016779;28;20050;-71
2022/05/23 01:37:00;;;;;;;125.00;114.40;;;15.50;78.60;;;;;;5000274;28;20056;-71
2022/05/23 01:39:29;;;;;;;125.82;114.97;;;15.50;78.60;;;;;;5026236;28;20050;-72
2022/05/23 01:42:00;;;;;;;124.82;114.32;;;15.50;78.50;;;;;;4996624;28;20051;-72
2022/05/23 01:44:28;;;;;;;123.85;113.15;;;15.50;78.60;;;;;;4980505;28;20165;-71
2022/05/23 01:47:11;;;;;;;127.07;116.38;;;15.50;78.50;;;;;;4996244;28;20051;-71
2022/05/23 01:49:53;;;;;;;125.68;115.03;;;15.40;78.40;;;;;;5012752;28;20521;-71
2022/05/23 01:52:58;;;;;;;123.68;113.07;;;15.40;78.40;;;;;;5003303;28;20062;-71
2022/05/23 01:55:38;;;;;;;125.22;114.28;;;15.40;78.50;;;;;;5012783;28;20428;-71
2022/05/23 01:58:13;;;;;;;124.78;113.95;;;15.40;78.60;;;;;;4995958;28;20054;-71
2022/05/23 02:03:34;;;;;;;123.15;112.40;;;15.50;78.70;;;;;;4980144;28;20059;-71
2022/05/23 02:06:01;;;;;;;125.60;114.70;;;15.50;78.60;;;;;;5012621;28;20061;-71
2022/05/23 02:08:28;;;;;;;124.32;113.55;;;15.50;78.80;;;;;;4996053;28;20057;-71
2022/05/23 02:10:55;;;;;;;124.35;113.75;;;15.50;79.20;;;;;;4979902;28;20057;-71
2022/05/23 02:13:36;;;;;;;125.28;114.72;;;15.50;79.00;;;;;;4994811;28;20046;-72
2022/05/23 02:16:05;;;;;;;125.40;114.88;;;15.50;79.00;;;;;;4980023;28;20073;-72
2022/05/23 02:18:40;;;;;;;123.38;112.90;;;15.40;78.90;;;;;;4979539;28;20047;-72
2022/05/23 02:21:07;;;;;;;125.18;114.47;;;15.50;79.00;;;;;;4979242;28;20644;-71
2022/05/23 02:23:36;;;;;;;123.57;112.78;;;15.40;79.00;;;;;;4996338;28;20501;-72
2022/05/23 02:26:04;;;;;;;125.15;114.38;;;15.40;79.00;;;;;;4995733;28;20077;-71
2022/05/23 02:29:07;;;;;;;125.40;114.50;;;15.50;79.10;;;;;;4983452;28;20057;-71
2022/05/23 02:31:34;;;;;;;125.40;114.60;;;15.40;79.10;;;;;;4995687;28;20497;-71
2022/05/23 02:34:05;;;;;;;123.45;112.95;;;15.40;79.20;;;;;;4996236;28;20066;-71
2022/05/23 02:36:42;;;;;;;124.20;113.60;;;15.40;79.20;;;;;;4979422;28;20053;-71
2022/05/23 02:39:12;;;;;;;125.18;114.47;;;15.40;79.30;;;;;;5013418;28;20053;-71
2022/05/23 02:41:41;;;;;;;124.18;113.57;;;15.40;79.50;;;;;;4979506;28;20079;-71
2022/05/23 02:44:12;;;;;;;124.65;114.00;;;15.30;79.50;;;;;;4995724;28;20082;-71
2022/05/23 02:46:39;;;;;;;126.25;115.45;;;15.30;79.70;;;;;;4994116;28;20049;-71
2022/05/23 02:49:13;;;;;;;124.45;113.68;;;15.30;79.80;;;;;;4995286;28;20321;-71
2022/05/23 02:51:43;;;;;;;126.70;116.00;;;15.30;80.10;;;;;;4979558;28;20505;-71
2022/05/23 02:54:12;;;;;;;124.38;113.78;;;15.30;80.40;;;;;;5012046;28;20145;-71
2022/05/23 02:56:41;;;;;;;124.82;114.13;;;15.30;81.20;;;;;;4979216;28;20056;-71
2022/05/23 02:59:09;;;;;;;124.65;113.88;;;15.30;80.80;;;;;;4978936;28;20124;-72
2022/05/23 03:03:01;;;;;;;125.40;114.75;;;15.30;80.90;;;;;;4994984;28;20049;-72
2022/05/23 03:04:35;;;;;;;124.47;113.55;;;15.30;80.90;;;;;;5011327;28;20182;-72
2022/05/23 03:07:02;;;;;;;127.22;116.38;;;15.30;80.80;;;;;;4978676;28;20440;-72
2022/05/23 03:09:30;;;;;;;124.00;113.32;;;15.30;81.00;;;;;;5011438;28;20506;-72
2022/05/23 03:11:57;;;;;;;125.18;114.50;;;15.30;81.00;;;;;;4994456;28;20046;-72
2022/05/23 03:14:27;;;;;;;126.43;115.70;;;15.20;81.30;;;;;;4994141;28;20057;-71
2022/05/23 03:17:02;;;;;;;127.18;116.35;;;15.20;81.50;;;;;;5011416;28;20097;-71
2022/05/23 03:19:31;;;;;;;124.45;113.68;;;15.20;81.70;;;;;;5006367;28;20065;-71
2022/05/23 03:27:46;;;;;;;125.32;114.65;;;15.10;82.30;;;;;;4915133;28;20291;-72
2022/05/23 03:30:19;;;;;;;125.25;114.50;;;15.10;82.30;;;;;;4982376;28;20100;-71
2022/05/23 03:32:58;;;;;;;124.88;114.18;;;15.10;82.40;;;;;;5030796;28;20145;-71
2022/05/23 03:35:26;;;;;;;126.20;115.35;;;15.10;82.50;;;;;;4998142;28;20061;-72
2022/05/23 03:37:53;;;;;;;123.90;113.30;;;15.10;82.70;;;;;;5031860;28;20499;-72
2022/05/23 03:40:20;;;;;;;124.68;114.07;;;15.10;82.80;;;;;;5030815;28;20521;-71
2022/05/23 03:42:54;;;;;;;124.53;113.85;;;15.10;83.00;;;;;;4997935;28;20080;-72
2022/05/23 03:45:22;;;;;;;124.70;114.20;;;15.10;82.90;;;;;;4997686;28;20042;-72
2022/05/23 03:47:50;;;;;;;125.63;114.93;;;15.10;82.80;;;;;;5014239;28;20447;-72
2022/05/23 03:50:20;;;;;;;125.55;114.68;;;15.10;82.70;;;;;;4998054;28;20046;-72
2022/05/23 03:52:47;;;;;;;124.60;114.03;;;15.10;82.80;;;;;;5029810;28;20570;-72
2022/05/23 03:55:25;;;;;;;125.05;114.50;;;15.10;82.70;;;;;;5030927;28;20054;-72
2022/05/23 03:58:11;;;;;;;126.30;115.75;;;15.10;82.80;;;;;;5031485;28;20062;-71
2022/05/23 04:00:38;;;;;;;126.10;115.38;;;15.10;82.90;;;;;;5014078;28;20165;-71
2022/05/23 04:03:05;;;;;;;125.97;115.30;;;15.10;83.40;;;;;;5014496;28;20562;-71
2022/05/23 04:05:33;;;;;;;126.05;115.35;;;15.10;83.20;;;;;;5030905;28;20065;-71
2022/05/23 04:08:07;;;;;;;122.35;111.97;;;15.10;83.30;;;;;;5013750;28;20053;-71
2022/05/23 04:10:41;;;;;;;122.53;111.82;;;15.10;83.20;;;;;;4997449;28;20053;-71
2022/05/23 04:13:12;;;;;;;124.78;114.28;;;15.10;83.20;;;;;;5031902;28;20093;-71
2022/05/23 04:15:40;;;;;;;124.57;114.07;;;15.10;83.30;;;;;;5014431;28;20519;-72
2022/05/23 04:18:08;;;;;;;125.35;114.55;;;15.10;83.40;;;;;;4997723;28;20083;-72
2022/05/23 04:20:36;;;;;;;125.18;114.57;;;15.10;83.40;;;;;;5013894;28;20563;-72
2022/05/23 04:23:29;;;;;;;;;;;15.10;83.60;;;;;;5026305;28;20475;-72
2022/05/23 04:26:00;;;;;;;123.20;112.22;;;15.00;83.90;;;;;;4996216;28;19929;-71
2022/05/23 04:28:28;;;;;;;124.55;113.63;;;14.90;84.00;;;;;;5013769;28;20100;-72
2022/05/23 04:30:55;;;;;;;123.07;112.47;;;14.90;84.60;;;;;;5014034;28;20058;-71
2022/05/23 04:36:14;;;;;;;;;;;14.90;85.30;;;;;;4998421;28;20167;-71
2022/05/23 04:38:42;;;;;;;122.18;111.30;;;14.90;85.40;;;;;;4997878;28;19933;-71
2022/05/23 04:41:09;;;;;;;122.13;111.53;;;14.90;85.50;;;;;;5030218;28;20058;-71
2022/05/23 04:43:55;;;;;;;122.40;111.78;;;14.90;85.90;;;;;;5000284;28;20111;-71
2022/05/23 04:46:26;;;;;;;122.63;111.75;;;14.90;86.30;;;;;;5033621;28;20100;-71
2022/05/23 04:52:09;;;;;;;122.53;111.93;;;14.90;86.90;;;;;;5000098;28;20042;-71
2022/05/23 04:54:42;;;;;;;121.65;110.95;;;14.90;87.20;;;;;;5016988;28;20046;-72
2022/05/23 04:57:11;;;;;;;126.55;115.70;;;14.90;87.50;;;;;;5031921;28;20163;-72
2022/05/23 04:59:38;;;;;;;127.03;116.28;;;14.90;87.70;;;;;;5033862;28;20046;-72
2022/05/23 05:02:10;;;;;;;123.85;113.00;;;14.90;88.00;;;;;;5024585;28;20046;-71
2022/05/23 05:04:37;;;;;;;125.25;114.55;;;14.90;88.50;;;;;;5027205;28;20112;-71
2022/05/23 05:07:05;;;;;;;125.72;114.97;;;14.90;88.50;;;;;;5031858;28;20518;-71
2022/05/23 05:09:34;;;;;;;123.15;112.53;;;14.90;89.20;;;;;;5016562;28;20046;-72
2022/05/23 05:12:07;;;;;;;123.57;112.72;;;14.90;89.00;;;;;;5016367;28;20046;-71
2022/05/23 05:14:37;;;;;;;123.60;112.90;;;14.90;89.00;;;;;;5033019;28;20128;-71
2022/05/23 05:17:08;;;;;;;126.65;115.82;;;14.90;89.20;;;;;;5015727;28;20512;-71
2022/05/23 05:19:36;;;;;;;125.60;114.85;;;15.00;89.20;;;;;;5015627;28;20096;-72
2022/05/23 05:22:22;;;;;;;122.75;112.15;;;15.00;89.40;;;;;;5016076;28;20100;-72
2022/05/23 05:25:29;;;;;;;124.22;113.32;;;15.00;89.40;;;;;;4986721;28;20065;-72
2022/05/23 05:27:58;;;;;;;124.13;113.32;;;15.10;89.60;;;;;;5010799;28;20050;-73
2022/05/23 05:30:26;;;;;;;126.43;115.43;;;15.10;90.00;;;;;;4988760;28;20623;-72
2022/05/23 05:33:00;;;;;;;123.00;112.20;;;15.10;89.90;;;;;;5011385;28;20049;-72
2022/05/23 05:35:33;;;;;;;124.53;113.68;;;15.10;90.00;;;;;;4986904;28;20141;-73
2022/05/23 05:38:05;;;;;;;125.25;114.38;;;15.10;90.10;;;;;;5003417;28;20069;-73
2022/05/23 05:40:36;;;;;;;124.97;114.07;;;15.20;90.20;;;;;;5005659;28;20050;-73
2022/05/23 05:43:06;;;;;;;123.63;112.88;;;15.20;90.20;;;;;;5021079;28;20054;-72
2022/05/23 05:45:38;;;;;;;125.25;114.45;;;15.30;90.30;;;;;;5005243;28;20053;-72
2022/05/23 05:48:25;;;;;;;125.38;114.72;;;15.30;90.40;;;;;;5005103;28;20127;-71
2022/05/23 05:50:52;;;;;;;125.38;114.57;;;15.30;90.40;;;;;;5005884;28;20065;-71
2022/05/23 05:53:25;;;;;;;125.75;114.82;;;15.30;90.60;;;;;;5005167;28;20042;-72
2022/05/23 05:55:57;;;;;;;125.47;114.50;;;15.30;90.60;;;;;;4987992;28;20050;-72
2022/05/23 05:58:25;;;;;;;125.03;114.15;;;15.30;90.70;;;;;;5004276;28;20065;-72
2022/05/23 06:00:56;;;;;;;127.22;115.97;;;15.40;90.70;;;;;;5010222;28;20045;-71
2022/05/23 06:03:27;;;;;;;128.85;117.90;;;15.40;90.70;;;;;;5000464;28;20531;-72
2022/05/23 06:11:36;;;;;;;123.72;112.93;;;15.50;91.00;;;;;;4990329;28;20646;-72
2022/05/23 06:14:12;;;;;;;125.47;114.30;;;15.60;91.30;;;;;;5004815;28;20420;-73
2022/05/23 06:16:47;;;;;;;124.35;113.55;;;15.60;91.50;;;;;;5024356;28;20054;-72
2022/05/23 06:19:21;;;;;;;126.18;115.05;;;15.60;91.50;;;;;;4992829;28;20050;-72
2022/05/23 06:22:10;;;;;;;125.68;115.00;;;15.70;91.70;;;;;;5002523;28;20073;-72
2022/05/23 06:24:41;;;;;;;124.38;113.43;;;15.70;91.70;;;;;;5006116;28;20038;-72
2022/05/23 06:27:10;;;;;;;128.88;117.65;;;15.80;91.80;;;;;;5004512;28;20140;-71
2022/05/23 06:30:00;;;;;;;125.97;115.18;;;15.80;92.00;;;;;;5005661;28;20169;-71
2022/05/23 06:32:38;;;;;;;125.25;114.15;;;15.90;92.00;;;;;;4994734;28;20137;-72
2022/05/23 06:35:07;;;;;;;125.03;114.32;;;15.90;92.10;;;;;;5032925;28;20097;-72
2022/05/23 06:37:36;;;;;;;125.63;114.80;;;16.00;91.90;;;;;;5013082;28;20057;-72
2022/05/23 06:40:15;;;;;;;125.57;114.72;;;16.10;92.00;;;;;;5031605;28;20049;-72
2022/05/23 06:43:02;;;;;;;126.65;115.75;;;16.10;92.00;;;;;;5014598;28;20048;-72
2022/05/23 06:45:48;;;;;;;126.60;115.90;;;16.20;91.90;;;;;;5014736;28;20038;-72
2022/05/23 06:48:27;;;;;;;128.60;117.63;;;16.20;92.10;;;;;;5032659;28;20101;-72
2022/05/23 06:51:00;;;;;;;126.72;115.70;;;16.30;92.00;;;;;;5013646;28;20431;-72
2022/05/23 06:53:36;;;;;;;128.02;117.22;;;16.40;92.10;;;;;;5013897;28;20401;-72
2022/05/23 06:56:35;;;;;;;129.95;118.65;;;16.40;92.20;;;;;;4995294;28;20540;-72
2022/05/23 06:59:04;;;;;;;127.30;116.68;;;16.50;92.00;;;;;;4996706;28;20593;-72
2022/05/23 07:01:46;;;;;;;131.48;120.25;;;16.50;92.10;;;;;;5013220;28;20049;-72
2022/05/23 07:04:23;;;;;;;129.85;119.07;;;16.60;92.30;;;;;;5030159;28;20057;-72
2022/05/23 07:12:39;;;;;;;129.02;118.13;;;16.80;92.20;;;;;;5012495;28;20037;-72
2022/05/23 07:15:10;;;;;;;128.77;117.97;;;16.90;92.30;;;;;;5014596;28;20045;-72
2022/05/23 07:17:40;;;;;;;132.05;120.78;;;16.90;92.40;;;;;;5008316;28;20055;-72
2022/05/23 07:20:19;;;;;;;130.45;119.35;;;17.00;92.30;;;;;;5012491;28;20066;-72
2022/05/23 07:23:06;;;;;;;130.48;119.65;;;17.10;92.20;;;;;;5031282;28;20500;-72
2022/05/23 07:25:39;;;;;;;131.57;120.57;;;17.20;92.30;;;;;;5013369;28;20062;-72
2022/05/23 07:28:07;;;;;;;133.20;122.40;;;17.30;92.20;;;;;;5029319;28;20061;-72
2022/05/23 07:30:36;;;;;;;131.45;120.57;;;17.30;92.10;;;;;;5029413;28;20089;-72
2022/05/23 07:33:03;;;;;;;132.38;121.18;;;17.40;92.20;;;;;;5012706;28;20092;-72
2022/05/23 07:35:54;;;;;;;128.73;118.13;;;17.50;91.90;;;;;;5030513;28;20077;-72
2022/05/23 07:38:22;;;;;;;132.60;121.82;;;17.60;91.60;;;;;;5012566;28;20050;-72
2022/05/23 07:40:50;;;;;;;131.98;121.38;;;17.70;91.40;;;;;;5030080;28;20049;-72
2022/05/23 07:43:19;;;;;;;130.20;119.35;;;17.80;91.30;;;;;;5014390;28;20045;-72
2022/05/23 07:45:49;;;;;;;132.02;121.35;;;17.90;91.50;;;;;;5012840;28;20141;-72
2022/05/23 07:48:18;;;;;;;132.90;122.20;;;17.90;91.60;;;;;;4997495;28;20069;-72
2022/05/23 07:50:46;;;;;;;132.77;121.88;;;18.00;91.60;;;;;;5014091;28;20081;-72
2022/05/23 08:01:43;;;;;;;;;;;18.30;90.80;;;;;;4997914;28;20132;-72
2022/05/23 08:04:10;;;;;;;131.45;120.55;;;18.40;90.50;;;;;;5030976;28;20036;-72
2022/05/23 08:06:45;;;;;;;129.57;119.13;;;18.50;90.40;;;;;;5030234;28;20049;-72
2022/05/23 08:09:15;;;;;;;129.73;119.13;;;18.50;90.90;;;;;;5013947;28;20482;-72
2022/05/23 08:11:53;;;;;;;129.27;118.82;;;18.60;90.70;;;;;;5013688;28;20062;-72
2022/05/23 08:14:20;;;;;;;128.70;118.22;;;18.70;90.50;;;;;;5031456;28;20050;-72
2022/05/23 08:17:03;;;;;;;131.02;120.22;;;18.70;90.40;;;;;;4997085;28;20065;-72
2022/05/23 08:19:39;;;;;;;132.55;122.13;;;18.80;90.50;;;;;;5008575;28;20043;-73
2022/05/23 08:22:13;;;;;;;131.30;120.90;;;18.90;90.60;;;;;;5014229;28;20144;-73
2022/05/23 08:24:50;;;;;;;131.85;121.38;;;19.00;90.50;;;;;;5000986;28;20580;-72
2022/05/23 08:27:17;;;;;;;135.77;125.57;;;19.00;90.70;;;;;;5034754;28;20058;-79
2022/05/23 08:29:48;;;;;;;135.52;124.93;;;19.10;90.70;;;;;;5000409;28;20554;-79
2022/05/23 08:32:17;;;;;;;136.02;125.43;;;19.20;90.50;;;;;;4990483;28;20045;-81
2022/05/23 08:34:52;;;;;;;135.85;125.13;;;19.30;90.60;;;;;;4981138;28;20058;-80
2022/05/23 08:37:19;;;;;;;139.40;128.38;;;19.30;90.50;;;;;;4980622;28;20136;-81
2022/05/23 08:39:47;;;;;;;135.52;125.13;;;19.50;90.60;;;;;;4985882;28;20077;-81
2022/05/23 08:42:27;;;;;;;136.02;125.43;;;19.50;90.60;;;;;;4981045;28;20088;-81
2022/05/23 08:45:13;;;;;;;134.43;124.05;;;19.60;90.60;;;;;;5002173;28;20042;-79
2022/05/23 08:47:53;;;;;;;137.35;126.75;;;19.70;90.30;;;;;;5006730;28;20049;-79
2022/05/23 08:50:25;;;;;;;133.80;123.53;;;19.80;89.90;;;;;;4989023;28;20133;-79
2022/05/23 08:53:00;;;;;;;135.88;125.47;;;19.90;89.50;;;;;;5007859;28;20460;-79
2022/05/23 08:55:49;;;;;;;134.35;124.05;;;20.00;90.00;;;;;;5008118;28;20053;-77
2022/05/23 08:58:31;;;;;;;134.43;124.13;;;20.10;90.40;;;;;;5003408;28;20428;-76
2022/05/23 09:01:02;;;;;;;138.02;127.30;;;20.20;90.20;;;;;;4989970;28;20140;-77
2022/05/23 09:03:33;;;;;;;140.45;129.75;;;20.20;89.30;;;;;;5006945;28;20086;-78
2022/05/23 09:06:06;;;;;;;139.55;129.02;;;20.30;88.60;;;;;;5014191;28;20081;-80
2022/05/23 09:08:39;;;;;;;140.00;129.18;;;20.40;89.60;;;;;;5016922;28;20800;-78
2022/05/23 09:11:11;;;;;;;140.05;129.40;;;20.50;88.00;;;;;;5016794;28;20058;-78
2022/05/23 09:13:41;;;;;;;134.70;124.45;;;20.60;87.60;;;;;;5017369;28;20409;-78
2022/05/23 09:16:12;;;;;;;137.48;127.20;;;20.60;87.50;;;;;;5016640;28;20522;-78
2022/05/23 09:18:49;;;;;;;142.18;131.52;;;20.70;86.20;;;;;;5016803;28;20057;-78
2022/05/23 09:21:16;;;;;;;138.95;128.57;;;20.80;86.10;;;;;;5000822;28;20054;-78
2022/05/23 09:23:47;;;;;;;138.35;127.63;;;20.90;85.90;;;;;;5034719;28;20050;-78
2022/05/23 09:26:21;;;;;;;139.93;129.35;;;20.90;84.30;;;;;;5016733;28;20131;-78
2022/05/23 09:28:50;;;;;;;135.10;124.97;;;21.00;85.00;;;;;;5014500;28;20093;-79
2022/05/23 09:31:27;;;;;;;138.20;127.90;;;21.10;82.00;;;;;;5016892;28;20065;-78
2022/05/23 09:33:57;;;;;;;136.07;125.70;;;21.20;82.40;;;;;;5016885;28;20516;-78
2022/05/23 09:36:31;;;;;;;139.60;129.30;;;21.30;81.00;;;;;;5035319;28;20057;-78
2022/05/23 09:39:01;;;;;;;132.93;122.85;;;21.40;80.90;;;;;;5035041;28;20258;-78
2022/05/23 09:47:54;;;;;;;132.23;122.10;;;21.50;81.80;;;;;;5016908;28;20050;-78
2022/05/23 09:50:37;;;;;;;133.27;123.13;;;21.60;81.90;;;;;;5016893;28;20133;-78
2022/05/23 09:53:05;;;;;;;133.15;122.88;;;21.70;79.90;;;;;;5034596;28;20080;-78
2022/05/23 09:55:34;;;;;;;137.77;127.57;;;21.70;81.10;;;;;;5017047;28;20049;-78
2022/05/23 09:58:04;;;;;;;139.88;129.45;;;21.70;81.40;;;;;;5034210;28;20120;-78
2022/05/23 10:00:35;;;;;;;136.93;126.72;;;21.80;81.90;;;;;;5034316;28;20061;-78
2022/05/23 10:03:05;;;;;;;140.38;129.98;;;21.80;81.10;;;;;;5017628;28;20140;-78
2022/05/23 10:05:35;;;;;;;141.75;131.50;;;21.80;80.10;;;;;;4996524;28;20516;-78
2022/05/23 10:08:11;;;;;;;140.57;130.23;;;21.90;80.10;;;;;;5013916;28;20050;-79
2022/05/23 10:10:40;;;;;;;142.15;131.43;;;22.00;79.70;;;;;;4997051;28;20141;-78
2022/05/23 10:13:23;;;;;;;140.85;130.57;;;22.00;79.60;;;;;;5014511;28;20477;-79
2022/05/23 10:15:52;;;;;;;;;;;22.10;78.20;;;;;;5002765;28;20061;-80
2022/05/23 10:18:23;;;;;;;135.20;125.00;;;22.10;79.40;;;;;;5003753;28;19933;-80
2022/05/23 10:20:53;;;;;;;138.93;128.43;;;22.20;78.40;;;;;;5010545;28;20088;-78
2022/05/23 10:23:22;;;;;;;133.55;123.85;;;22.20;77.00;;;;;;5016197;28;20069;-79
2022/05/23 10:26:01;;;;;;;140.85;130.65;;;22.40;77.00;;;;;;5014666;28;20054;-79
2022/05/23 10:28:36;;;;;;;137.23;127.03;;;22.40;77.60;;;;;;5014529;28;20053;-79
2022/05/23 10:31:08;;;;;;;137.38;127.38;;;22.50;76.20;;;;;;5016228;28;20419;-79
2022/05/23 10:33:36;;;;;;;138.88;128.80;;;22.50;76.60;;;;;;5016084;28;20050;-79
2022/05/23 10:36:10;;;;;;;146.27;135.63;;;22.70;77.10;;;;;;5013292;28;20053;-79
2022/05/23 10:44:28;;;;;;;145.75;135.40;;;22.90;76.20;;;;;;4996047;28;20144;-79
2022/05/23 10:47:08;;;;;;;146.38;135.82;;;23.00;74.70;;;;;;4995708;28;20580;-80
2022/05/23 10:49:43;;;;;;;144.98;134.15;;;23.10;75.60;;;;;;4996135;28;20583;-79
2022/05/23 10:52:19;;;;;;;142.10;132.10;;;23.20;73.40;;;;;;4995539;28;20065;-79
2022/05/23 10:54:54;;;;;;;141.60;131.75;;;23.30;72.80;;;;;;4995784;28;20166;-79
2022/05/23 10:57:31;;;;;;;144.10;134.00;;;23.40;71.80;;;;;;4995735;28;20051;-80
2022/05/23 11:00:05;;;;;;;146.65;135.40;;;23.40;71.00;;;;;;4996049;28;20062;-79
2022/05/23 11:02:43;;;;;;;144.23;134.13;;;23.50;71.50;;;;;;4996333;28;20054;-80
2022/05/23 11:05:18;;;;;;;142.38;132.18;;;23.50;71.80;;;;;;4995743;28;20254;-79
2022/05/23 11:08:00;;;;;;;140.10;130.25;;;23.60;71.90;;;;;;5000549;28;20077;-79
2022/05/23 11:10:34;;;;;;;146.05;135.88;;;23.70;71.30;;;;;;4997455;28;20074;-74
2022/05/23 11:13:12;;;;;;;143.50;133.13;;;23.80;70.50;;;;;;5019350;28;20104;-73
2022/05/23 11:15:47;;;;;;;145.55;135.48;;;23.80;70.80;;;;;;5006061;28;20308;-73
2022/05/23 11:18:26;;;;;;;142.68;132.77;;;23.90;69.60;;;;;;5028583;28;20042;-73
2022/05/23 11:20:58;;;;;;;149.35;138.85;;;24.00;69.80;;;;;;5023179;28;20058;-74
2022/05/23 11:23:33;;;;;;;148.35;137.98;;;24.00;69.80;;;;;;5005898;28;20050;-73
2022/05/23 11:26:07;;;;;;;148.45;138.23;;;24.20;66.60;;;;;;5005364;28;20452;-74
2022/05/23 11:34:22;;;;;;;143.50;133.40;;;24.40;66.40;;;;;;5028104;28;20042;-73
2022/05/23 11:37:09;;;;;;;144.95;134.85;;;24.40;66.30;;;;;;5024745;28;20045;-73
2022/05/23 11:39:49;;;;;;;143.10;133.18;;;24.40;64.90;;;;;;5009830;28;20080;-73
2022/05/23 11:42:28;;;;;;;145.10;135.13;;;24.50;65.10;;;;;;5007384;28;20053;-73
2022/05/23 11:44:59;;;;;;;143.45;133.35;;;24.50;66.10;;;;;;5003370;28;20062;-73
2022/05/23 11:47:28;;;;;;;146.70;136.57;;;24.50;65.60;;;;;;5000837;28;20109;-74
2022/05/23 11:50:17;;;;;;;149.18;138.88;;;24.60;65.90;;;;;;5023213;28;20080;-73
2022/05/23 11:52:48;;;;;;;150.35;139.88;;;24.60;64.70;;;;;;5006917;28;20513;-73
2022/05/23 11:58:23;;;;;;;145.73;135.57;;;24.70;64.40;;;;;;5129641;27;20383;-72
2022/05/23 12:01:04;;;;;;;146.48;136.27;;;24.80;66.50;;;;;;5118529;27;20048;-72
2022/05/23 12:04:10;;;;;;;141.55;131.48;;;24.80;66.80;;;;;;5115375;27;20468;-72
2022/05/23 12:06:41;;;;;;;138.98;128.52;;;25.00;67.40;;;;;;5101359;27;20091;-72
2022/05/23 12:09:37;;;;;;;137.45;127.35;;;25.10;66.50;;;;;;5120921;27;20056;-72
2022/05/23 12:12:46;;;;;;;139.23;129.23;;;25.10;65.70;;;;;;5114485;27;20083;-72
2022/05/23 12:15:47;;;;;;;138.25;128.07;;;25.20;63.30;;;;;;5100843;27;20048;-72
2022/05/23 12:18:39;;;;;;;139.80;129.77;;;25.10;63.20;;;;;;5113802;27;20052;-72
2022/05/23 12:21:28;;;;;;;140.05;129.98;;;25.10;64.00;;;;;;5113807;27;20042;-72
2022/05/23 12:24:11;;;;;;;136.55;126.45;;;25.10;63.40;;;;;;5118939;27;20522;-71
2022/05/23 12:26:40;;;;;;;137.73;127.82;;;25.00;63.60;;;;;;5153731;27;20052;-73
2022/05/23 12:29:28;;;;;;;137.25;127.55;;;25.00;62.60;;;;;;5120662;27;20551;-72
2022/05/23 12:32:26;;;;;;;137.93;128.18;;;24.90;62.90;;;;;;5112157;27;20127;-72
2022/05/23 12:34:59;;;;;;;138.90;129.15;;;24.80;62.70;;;;;;5093266;27;20539;-72
2022/05/23 12:37:33;;;;;;;138.38;127.95;;;24.80;62.30;;;;;;5116779;27;20055;-72
2022/05/23 12:40:14;;;;;;;137.98;128.07;;;24.80;62.60;;;;;;5115040;27;20135;-72
2022/05/23 12:42:52;;;;;;;136.23;126.32;;;24.70;63.10;;;;;;5116357;27;20045;-72
2022/05/23 12:45:51;;;;;;;136.05;126.05;;;24.70;63.00;;;;;;5116450;27;20048;-72
2022/05/23 12:48:52;;;;;;;138.85;128.60;;;24.70;62.70;;;;;;5106989;27;20656;-72
2022/05/23 12:51:33;;;;;;;135.35;125.35;;;24.70;62.40;;;;;;5151490;27;20146;-72
2022/05/23 12:54:21;;;;;;;137.55;127.70;;;24.60;61.20;;;;;;5118692;27;20116;-72
2022/05/23 12:57:20;;;;;;;138.13;127.93;;;24.60;61.80;;;;;;5116639;27;20059;-72
2022/05/23 12:59:53;;;;;;;138.52;128.52;;;24.50;62.20;;;;;;5104353;27;20048;-72
2022/05/23 13:02:30;;;;;;;137.68;127.53;;;24.40;61.70;;;;;;5112209;27;20052;-72
2022/05/23 13:05:00;;;;;;;136.60;126.50;;;24.30;62.70;;;;;;5096011;28;20526;-72
2022/05/23 13:07:37;;;;;;;137.07;126.78;;;24.30;62.90;;;;;;5105092;28;20102;-72
2022/05/23 13:10:07;;;;;;;137.32;126.93;;;24.20;63.40;;;;;;5094685;28;20059;-71
2022/05/23 13:12:39;;;;;;;136.63;126.53;;;24.20;64.10;;;;;;5093364;28;20076;-72
2022/05/23 13:15:07;;;;;;;137.82;127.63;;;24.10;64.70;;;;;;5098711;28;20048;-71
2022/05/23 13:17:41;;;;;;;138.98;128.68;;;24.00;65.00;;;;;;5107962;28;20052;-72
2022/05/23 13:23:14;;;;;;;134.98;124.28;;;24.00;65.30;;;;;;5136092;27;20121;-71
2022/05/23 13:25:41;;;;;;;133.18;123.05;;;24.00;65.70;;;;;;5099930;28;20103;-72
2022/05/23 13:28:10;;;;;;;133.68;123.78;;;24.00;65.60;;;;;;5103121;28;20048;-71
2022/05/23 13:30:41;;;;;;;133.18;123.10;;;24.00;65.50;;;;;;5104177;28;20540;-71
2022/05/23 13:33:12;;;;;;;134.15;124.03;;;24.00;66.20;;;;;;5105214;28;20083;-72
2022/05/23 13:35:40;;;;;;;136.52;126.43;;;24.00;66.00;;;;;;5102078;28;20489;-72
2022/05/23 13:38:24;;;;;;;136.63;126.50;;;24.00;65.80;;;;;;5103370;28;20052;-72
2022/05/23 13:40:54;;;;;;;135.52;125.45;;;23.90;65.80;;;;;;5137384;27;20052;-72
2022/05/23 13:43:25;;;;;;;134.35;124.45;;;23.90;66.00;;;;;;5102416;28;20037;-72